Time;durP1;ratioP1;P1;durP2;ratioP2;P2;SDS_P1;SDS_P2;PMS_P1;PMS_P2;Temp;Humidity;BMP_temperature;BMP_pressure;BME280_temperature;BME280_humidity;BME280_pressure;Samples;Min_cycle;Max_cycle;Signal;HPM_P1;HPM_P2
2020/12/26 00:02:40;;;;;;;5.90;2.80;;;-0.50;97.90;;;;;;8243142;28;20101;-73
2020/12/26 00:06:42;;;;;;;3.60;2.37;;;-0.40;97.90;;;;;;8232607;28;20058;-74
2020/12/26 00:10:43;;;;;;;5.97;1.83;;;-0.40;97.80;;;;;;8233557;28;20452;-74
2020/12/26 00:14:45;;;;;;;4.28;2.10;;;-0.50;97.90;;;;;;8217833;28;20134;-74
2020/12/26 00:18:47;;;;;;;;;;;-0.40;97.80;;;;;;8226297;28;20082;-74
2020/12/26 00:22:49;;;;;;;10.65;2.17;;;-0.10;98.70;;;;;;8221378;28;19930;-74
2020/12/26 00:26:56;;;;;;;4.07;1.70;;;0.10;97.90;;;;;;8230191;28;20051;-74
2020/12/26 00:30:58;;;;;;;5.32;2.28;;;-0.20;98.10;;;;;;8244987;28;21033;-74
2020/12/26 00:35:00;;;;;;;7.63;2.10;;;1.30;98.30;;;;;;8234631;28;20089;-74
2020/12/26 00:39:01;;;;;;;;;;;0.00;97.80;;;;;;8254596;28;20069;-75
2020/12/26 00:43:03;;;;;;;3.75;1.67;;;0.00;98.40;;;;;;8216389;28;19928;-75
2020/12/26 00:47:04;;;;;;;6.22;2.20;;;1.10;98.30;;;;;;8217261;28;20463;-76
2020/12/26 00:51:18;;;;;;;4.05;1.67;;;1.00;98.30;;;;;;8218956;28;20053;-74
2020/12/26 00:55:19;;;;;;;3.57;2.00;;;0.20;98.40;;;;;;8241079;28;20430;-75
2020/12/26 00:59:21;;;;;;;4.45;1.75;;;0.10;98.10;;;;;;8250726;28;21261;-75
2020/12/26 01:03:23;;;;;;;6.22;2.47;;;0.30;98.90;;;;;;8217118;28;20080;-74
2020/12/26 01:07:25;;;;;;;6.40;2.58;;;0.20;98.70;;;;;;8230232;28;20050;-75
2020/12/26 01:11:26;;;;;;;11.15;4.40;;;0.40;98.30;;;;;;8202563;28;20069;-75
2020/12/26 01:15:28;;;;;;;11.23;4.30;;;0.40;98.40;;;;;;8240377;28;20053;-75
2020/12/26 01:19:29;;;;;;;7.05;2.55;;;0.20;99.00;;;;;;8234812;28;20053;-76
2020/12/26 01:23:34;;;;;;;3.65;2.10;;;0.20;98.70;;;;;;8245794;28;20496;-75
2020/12/26 01:27:35;;;;;;;6.57;1.85;;;0.30;98.80;;;;;;8241875;28;20054;-75
2020/12/26 01:31:37;;;;;;;15.45;5.03;;;0.40;98.80;;;;;;8222767;28;20072;-76
2020/12/26 01:35:38;;;;;;;18.57;6.07;;;0.50;99.50;;;;;;8211746;28;20061;-74
2020/12/26 01:39:40;;;;;;;11.55;3.83;;;0.50;99.90;;;;;;8238942;28;20542;-75
2020/12/26 01:43:56;;;;;;;14.27;4.30;;;0.60;99.50;;;;;;8239260;28;20113;-76
2020/12/26 01:47:57;;;;;;;19.40;7.15;;;0.30;99.60;;;;;;8237144;28;21524;-76
2020/12/26 01:52:00;;;;;;;16.45;6.40;;;0.30;99.00;;;;;;8233545;28;20508;-76
2020/12/26 01:56:02;;;;;;;18.67;6.72;;;0.30;98.80;;;;;;8225047;28;20058;-75
2020/12/26 02:00:04;;;;;;;13.48;4.70;;;0.30;99.00;;;;;;8239249;28;20503;-76
2020/12/26 02:04:17;;;;;;;9.68;3.38;;;0.50;99.10;;;;;;8238523;28;20065;-77
2020/12/26 02:08:18;;;;;;;7.38;2.95;;;0.40;99.30;;;;;;8221460;28;20061;-75
2020/12/26 02:12:20;;;;;;;12.07;4.28;;;0.30;98.60;;;;;;8237766;28;20460;-76
2020/12/26 02:16:22;;;;;;;16.65;5.43;;;2.10;99.10;;;;;;8235237;28;20057;-75
2020/12/26 02:20:23;;;;;;;14.05;4.50;;;1.70;99.00;;;;;;8240657;28;20060;-75
2020/12/26 02:24:24;;;;;;;17.30;5.93;;;0.50;98.80;;;;;;8223234;28;20120;-74
2020/12/26 02:28:26;;;;;;;15.82;4.75;;;1.20;98.80;;;;;;8229065;28;20124;-74
2020/12/26 02:32:27;;;;;;;12.20;3.33;;;0.60;99.10;;;;;;8238613;28;20058;-76
2020/12/26 02:36:29;;;;;;;16.10;5.10;;;0.50;99.00;;;;;;8204834;28;20066;-75
2020/12/26 02:40:30;;;;;;;7.35;2.80;;;2.00;99.10;;;;;;8217290;28;20527;-75
2020/12/26 02:44:32;;;;;;;9.93;3.53;;;0.30;99.00;;;;;;8244982;28;20105;-75
2020/12/26 02:48:34;;;;;;;11.57;3.90;;;0.60;98.60;;;;;;8219713;28;20062;-75
2020/12/26 02:52:35;;;;;;;;;;;0.60;98.60;;;;;;8237172;28;20108;-75
2020/12/26 02:56:36;;;;;;;5.00;2.10;;;1.30;99.70;;;;;;8225082;28;19925;-75
2020/12/26 03:00:38;;;;;;;6.63;2.22;;;0.60;99.00;;;;;;8234328;28;20062;-77
2020/12/26 03:04:39;;;;;;;5.87;2.00;;;0.60;99.30;;;;;;8228514;28;20436;-75
2020/12/26 03:08:40;;;;;;;6.17;2.20;;;1.50;99.50;;;;;;8231370;28;20477;-77
2020/12/26 03:12:42;;;;;;;9.80;2.13;;;0.60;99.40;;;;;;8215382;28;20468;-76
2020/12/26 03:16:47;;;;;;;7.40;2.00;;;1.00;99.30;;;;;;8234444;28;20053;-76
2020/12/26 03:20:48;;;;;;;3.93;2.07;;;1.10;99.80;;;;;;8244124;28;20063;-77
2020/12/26 03:24:50;;;;;;;8.40;2.00;;;1.30;99.80;;;;;;8212544;28;20543;-77
2020/12/26 03:28:52;;;;;;;4.95;2.00;;;1.20;99.70;;;;;;8235815;28;20871;-76
2020/12/26 03:32:53;;;;;;;5.22;2.08;;;0.60;99.10;;;;;;8220091;28;20046;-76
2020/12/26 03:36:54;;;;;;;9.10;1.97;;;1.60;99.80;;;;;;8220560;28;20054;-76
2020/12/26 03:40:56;;;;;;;3.40;1.60;;;0.80;99.90;;;;;;8220542;28;20480;-77
2020/12/26 03:44:57;;;;;;;3.53;1.63;;;0.90;99.90;;;;;;8236093;28;20528;-76
2020/12/26 03:48:59;;;;;;;3.22;1.63;;;0.90;99.90;;;;;;8220010;28;20062;-76
2020/12/26 03:53:06;;;;;;;4.10;1.73;;;1.00;99.90;;;;;;8235017;28;20755;-76
2020/12/26 03:57:08;;;;;;;6.45;2.03;;;1.50;99.90;;;;;;8239775;28;20269;-76
2020/12/26 04:01:10;;;;;;;3.97;1.60;;;1.50;99.90;;;;;;8224340;28;20499;-76
2020/12/26 04:05:11;;;;;;;4.78;2.15;;;0.80;99.90;;;;;;8234943;28;20062;-76
2020/12/26 04:09:13;;;;;;;4.00;1.73;;;1.10;99.90;;;;;;8202948;28;20147;-77
2020/12/26 04:13:15;;;;;;;4.53;2.22;;;1.10;99.90;;;;;;8219160;28;20133;-76
2020/12/26 04:17:16;;;;;;;3.37;1.60;;;1.10;99.90;;;;;;8224584;28;20046;-75
2020/12/26 04:21:25;;;;;;;4.95;1.92;;;1.10;99.90;;;;;;8237312;28;20142;-75
2020/12/26 04:25:26;;;;;;;4.45;1.88;;;1.70;99.90;;;;;;8220501;28;20050;-75
2020/12/26 04:29:27;;;;;;;7.50;1.42;;;1.00;99.90;;;;;;8233743;28;20644;-74
2020/12/26 04:33:29;;;;;;;3.88;1.50;;;1.10;99.90;;;;;;8245427;28;20692;-74
2020/12/26 04:37:30;;;;;;;3.97;1.42;;;1.10;99.90;;;;;;8231297;28;20088;-74
2020/12/26 04:41:32;;;;;;;3.87;1.60;;;1.30;99.90;;;;;;8228733;28;20140;-74
2020/12/26 04:45:35;;;;;;;2.75;1.50;;;;;;;;;;8234314;28;20892;-74
2020/12/26 04:49:38;;;;;;;4.68;1.77;;;1.40;99.90;;;;;;8246506;28;20058;-80
2020/12/26 04:53:45;;;;;;;3.78;1.80;;;1.50;99.90;;;;;;8247664;28;20080;-76
2020/12/26 04:57:48;;;;;;;5.18;2.10;;;1.20;99.90;;;;;;8218839;28;20436;-76
2020/12/26 05:01:51;;;;;;;5.05;1.83;;;1.10;99.90;;;;;;8235329;28;20660;-75
2020/12/26 05:06:02;;;;;;;8.35;2.03;;;1.30;99.90;;;;;;8235188;28;20133;-75
2020/12/26 05:10:04;;;;;;;6.72;2.42;;;1.10;99.90;;;;;;8232144;28;20922;-75
2020/12/26 05:14:07;;;;;;;4.35;1.80;;;;;;;;;;8214111;28;20061;-75
2020/12/26 05:18:09;;;;;;;4.60;1.88;;;1.40;99.90;;;;;;8216888;28;20058;-75
2020/12/26 05:22:11;;;;;;;6.25;1.83;;;1.40;99.90;;;;;;8210520;28;20071;-74
2020/12/26 05:26:12;;;;;;;4.35;2.47;;;1.40;99.90;;;;;;8243826;28;20065;-73
2020/12/26 05:30:15;;;;;;;5.78;1.95;;;1.70;99.90;;;;;;8241426;28;20393;-74
2020/12/26 05:34:16;;;;;;;5.75;2.05;;;1.30;99.90;;;;;;8218874;28;20051;-73
2020/12/26 05:38:23;;;;;;;2.88;1.90;;;1.30;99.90;;;;;;8216823;28;20464;-74
2020/12/26 05:42:25;;;;;;;7.32;2.08;;;1.60;99.90;;;;;;8235327;28;20066;-74
2020/12/26 05:46:26;;;;;;;5.93;2.20;;;1.90;99.90;;;;;;8224389;28;20503;-75
2020/12/26 05:50:28;;;;;;;4.37;2.03;;;1.70;99.90;;;;;;8230388;28;20132;-75
2020/12/26 05:54:31;;;;;;;7.22;2.08;;;1.90;99.90;;;;;;8234417;28;20472;-75
2020/12/26 05:58:41;;;;;;;5.90;2.20;;;1.60;99.90;;;;;;8218226;28;20132;-74
2020/12/26 06:02:43;;;;;;;5.47;1.95;;;1.60;99.90;;;;;;8233917;28;20138;-75
2020/12/26 06:06:52;;;;;;;5.57;2.42;;;2.80;99.90;;;;;;8247435;28;20142;-74
2020/12/26 06:10:55;;;;;;;8.15;2.25;;;;;;;;;;8213628;28;20055;-75
2020/12/26 06:14:57;;;;;;;8.57;2.35;;;1.50;99.90;;;;;;8214091;28;20052;-75
2020/12/26 06:18:59;;;;;;;4.97;2.42;;;2.80;99.90;;;;;;8227097;28;20112;-75
2020/12/26 06:23:01;;;;;;;7.38;2.90;;;2.00;99.90;;;;;;8226256;28;20480;-75
2020/12/26 06:27:09;;;;;;;6.97;3.03;;;1.60;99.90;;;;;;8219717;28;20049;-75
2020/12/26 06:31:11;;;;;;;6.68;2.97;;;1.70;99.90;;;;;;8235814;28;20058;-73
2020/12/26 06:35:15;;;;;;;10.52;3.08;;;2.20;99.90;;;;;;8207079;28;20046;-74
2020/12/26 06:39:31;;;;;;;5.07;2.90;;;2.00;99.90;;;;;;8235425;28;20053;-73
2020/12/26 06:43:48;;;;;;;9.60;3.42;;;2.60;99.90;;;;;;8260904;28;20093;-75
2020/12/26 06:47:49;;;;;;;7.63;3.40;;;2.30;99.90;;;;;;8250587;28;20372;-74
2020/12/26 06:51:51;;;;;;;10.07;3.63;;;1.80;99.90;;;;;;8237177;28;20073;-73
2020/12/26 06:55:53;;;;;;;9.65;3.92;;;;;;;;;;8222221;28;20061;-71
2020/12/26 06:59:54;;;;;;;8.43;3.60;;;2.10;99.90;;;;;;8235905;28;20528;-73
2020/12/26 07:04:11;;;;;;;10.57;4.07;;;2.20;99.90;;;;;;8243084;28;20108;-73
2020/12/26 07:08:22;;;;;;;8.95;4.28;;;2.40;99.90;;;;;;8238325;28;20101;-72
2020/12/26 07:12:41;;;;;;;9.50;3.80;;;2.70;99.90;;;;;;8231510;28;20078;-72
2020/12/26 07:16:45;;;;;;;8.50;4.00;;;2.70;99.90;;;;;;8219065;28;20059;-72
2020/12/26 07:20:51;;;;;;;9.95;4.38;;;2.60;99.90;;;;;;8231562;28;20058;-72
2020/12/26 07:25:02;;;;;;;12.68;4.32;;;;;;;;;;8226331;28;20049;-72
2020/12/26 07:29:05;;;;;;;11.02;4.45;;;;;;;;;;8221364;28;20066;-72
2020/12/26 07:33:07;;;;;;;9.18;4.28;;;;;;;;;;8227330;28;20113;-72
2020/12/26 07:37:11;;;;;;;11.90;4.40;;;;;;;;;;8212331;28;20352;-72
2020/12/26 07:41:12;;;;;;;10.38;4.75;;;;;;;;;;8261033;28;20058;-72
2020/12/26 07:45:16;;;;;;;8.82;4.68;;;;;;;;;;8222494;28;20404;-71
2020/12/26 07:49:17;;;;;;;13.25;4.68;;;;;;;;;;8219518;28;20540;-72
2020/12/26 07:53:19;;;;;;;10.30;4.43;;;;;;;;;;8219379;28;20621;-72
2020/12/26 07:57:21;;;;;;;12.02;5.00;;;;;;;;;;8205531;28;20331;-72
2020/12/26 08:01:26;;;;;;;14.90;4.97;;;;;;;;;;8228253;28;20058;-72
2020/12/26 08:05:28;;;;;;;14.05;4.53;;;;;;;;;;8207530;28;20244;-72
2020/12/26 08:09:30;;;;;;;10.70;4.55;;;;;;;;;;8224759;28;20513;-72
2020/12/26 08:13:35;;;;;;;14.10;4.10;;;;;;;;;;8247312;28;20104;-72
2020/12/26 08:17:38;;;;;;;12.68;3.97;;;;;;;;;;8243228;28;20145;-72
2020/12/26 08:21:40;;;;;;;19.50;3.85;;;;;;;;;;8216687;28;20054;-71
2020/12/26 08:25:48;;;;;;;18.55;4.15;;;;;;;;;;8230534;28;20054;-72
2020/12/26 08:29:51;;;;;;;21.83;4.65;;;;;;;;;;8232318;28;20770;-72
2020/12/26 08:34:13;;;;;;;20.08;5.78;;;;;;;;;;8233778;28;20069;-72
2020/12/26 08:38:31;;;;;;;20.83;4.18;;;;;;;;;;8225572;28;20063;-72
2020/12/26 08:42:36;;;;;;;23.35;4.65;;;;;;;;;;8234966;28;20132;-72
2020/12/26 08:46:42;;;;;;;25.30;4.40;;;;;;;;;;8220668;28;20089;-72
2020/12/26 08:50:53;;;;;;;24.73;4.25;;;;;;;;;;8232038;28;20047;-72
2020/12/26 08:55:05;;;;;;;30.13;3.92;;;;;;;;;;8229196;28;20101;-72
2020/12/26 08:59:07;;;;;;;28.83;3.92;;;;;;;;;;8239985;28;20494;-72
2020/12/26 09:03:11;;;;;;;23.65;2.95;;;;;;;;;;8217471;28;20535;-71
2020/12/26 09:07:22;;;;;;;17.63;2.80;;;;;;;;;;8231550;28;20061;-71
2020/12/26 09:11:30;;;;;;;21.55;2.67;;;;;;;;;;8235919;28;20066;-71
2020/12/26 09:16:08;;;;;;;13.52;2.63;;;;;;;;;;8234592;28;20673;-72
2020/12/26 09:20:12;;;;;;;18.40;2.88;;;;;;;;;;8119903;28;20524;-71
2020/12/26 09:24:18;;;;;;;23.83;2.95;;;;;;;;;;8242065;28;20599;-71
2020/12/26 09:28:19;;;;;;;17.20;2.88;;;;;;;;;;8232380;28;20050;-71
2020/12/26 09:32:22;;;;;;;17.58;2.88;;;;;;;;;;8235118;28;20109;-71
2020/12/26 09:36:28;;;;;;;22.15;3.35;;;;;;;;;;8231297;28;20057;-71
2020/12/26 09:40:32;;;;;;;17.00;2.80;;;;;;;;;;8235976;28;20125;-71
2020/12/26 09:44:33;;;;;;;21.52;3.80;;;;;;;;;;8226077;28;20570;-71
2020/12/26 09:48:35;;;;;;;13.57;4.35;;;;;;;;;;8222977;28;20475;-71
2020/12/26 09:52:38;;;;;;;32.97;4.78;;;;;;;;;;8231218;28;20496;-71
2020/12/26 09:56:40;;;;;;;28.75;4.20;;;;;;;;;;8234327;28;20124;-71
2020/12/26 10:00:42;;;;;;;21.55;4.68;;;;;;;;;;8245603;28;20727;-70
2020/12/26 10:04:44;;;;;;;23.02;5.10;;;;;;;;;;8244886;28;20053;-71
2020/12/26 10:08:47;;;;;;;21.88;5.53;;;;;;;;;;8216004;28;20043;-70
2020/12/26 10:12:50;;;;;;;22.92;6.78;;;;;;;;;;8230811;28;20054;-71
2020/12/26 10:16:52;;;;;;;22.25;6.40;;;;;;;;;;8229119;28;20062;-71
2020/12/26 10:20:53;;;;;;;14.15;6.43;;;;;;;;;;8221687;28;20080;-70
2020/12/26 10:24:55;;;;;;;19.80;6.38;;;;;;;;;;8235343;28;20771;-71
2020/12/26 10:28:57;;;;;;;24.55;6.85;;;;;;;;;;8232529;28;20058;-71
2020/12/26 10:32:59;;;;;;;20.00;6.35;;;;;;;;;;8239998;28;20062;-71
2020/12/26 10:37:02;;;;;;;22.35;6.53;;;;;;;;;;8234158;28;20116;-71
2020/12/26 10:41:05;;;;;;;24.48;6.50;;;4.80;99.90;;;;;;8233688;28;20081;-71
2020/12/26 10:45:06;;;;;;;22.23;7.15;;;4.70;99.90;;;;;;8233747;28;20053;-71
2020/12/26 10:49:08;;;;;;;16.77;5.70;;;;;;;;;;8217317;28;20396;-72
2020/12/26 10:53:12;;;;;;;19.08;6.15;;;4.70;99.90;;;;;;8226149;28;20050;-71
2020/12/26 10:57:13;;;;;;;23.63;5.23;;;5.20;99.90;;;;;;8237116;28;20058;-71
2020/12/26 11:01:15;;;;;;;24.07;6.30;;;4.90;99.90;;;;;;8231503;28;20471;-72
2020/12/26 11:05:16;;;;;;;27.00;4.53;;;5.10;99.90;;;;;;8233279;28;20054;-71
2020/12/26 11:09:18;;;;;;;24.02;4.60;;;5.20;99.90;;;;;;8243773;28;20058;-71
2020/12/26 11:13:19;;;;;;;10.63;3.53;;;4.90;99.90;;;;;;8219107;28;20062;-71
2020/12/26 11:17:21;;;;;;;24.83;4.60;;;;;;;;;;8237257;28;20059;-71
2020/12/26 11:21:23;;;;;;;16.52;3.95;;;5.00;99.90;;;;;;8234118;28;20544;-71
2020/12/26 11:25:27;;;;;;;13.75;3.85;;;5.30;99.90;;;;;;8208814;28;20054;-70
2020/12/26 11:29:30;;;;;;;;;;;5.50;99.90;;;;;;8239559;28;20042;-71
2020/12/26 11:33:32;;;;;;;15.15;4.20;;;5.30;99.90;;;;;;8234265;28;19928;-70
2020/12/26 11:37:34;;;;;;;13.98;3.90;;;5.00;99.90;;;;;;8213797;28;20712;-70
2020/12/26 11:41:36;;;;;;;16.70;4.90;;;5.30;99.90;;;;;;8231028;28;20289;-71
2020/12/26 11:45:37;;;;;;;11.82;4.18;;;5.40;99.90;;;;;;8219668;28;20508;-70
2020/12/26 11:49:39;;;;;;;16.87;4.63;;;5.10;99.90;;;;;;8214755;28;20046;-70
2020/12/26 11:53:41;;;;;;;15.40;3.90;;;5.30;99.90;;;;;;8212634;28;20050;-70
2020/12/26 11:57:42;;;;;;;16.65;4.78;;;5.00;99.90;;;;;;8214743;28;20089;-71
2020/12/26 12:01:44;;;;;;;18.30;4.93;;;5.30;99.90;;;;;;8218702;28;20058;-71
2020/12/26 12:05:46;;;;;;;18.07;4.33;;;5.20;99.90;;;;;;8211753;28;21945;-71
2020/12/26 12:09:48;;;;;;;14.50;5.20;;;5.40;99.90;;;;;;8201244;28;20050;-70
2020/12/26 12:13:49;;;;;;;15.37;5.03;;;5.50;99.90;;;;;;8215285;28;20050;-70
2020/12/26 12:17:50;;;;;;;19.03;5.20;;;5.10;99.90;;;;;;8226689;28;20407;-70
2020/12/26 12:21:52;;;;;;;19.33;5.47;;;5.40;99.90;;;;;;8214018;28;20054;-70
2020/12/26 12:25:53;;;;;;;26.15;5.22;;;5.60;99.90;;;;;;8210903;28;20050;-70
2020/12/26 12:29:55;;;;;;;26.17;6.13;;;4.90;99.90;;;;;;8250261;28;20054;-70
2020/12/26 12:33:56;;;;;;;16.07;4.93;;;5.30;99.90;;;;;;8231931;28;20050;-70
2020/12/26 12:37:58;;;;;;;15.88;4.45;;;5.60;99.90;;;;;;8241545;28;20502;-71
2020/12/26 12:41:59;;;;;;;13.17;3.70;;;5.40;99.90;;;;;;8226257;28;20474;-71
2020/12/26 12:46:01;;;;;;;14.75;3.83;;;5.50;99.90;;;;;;8213651;28;20054;-71
2020/12/26 12:50:08;;;;;;;14.05;4.88;;;5.20;99.90;;;;;;8233858;28;20423;-70
2020/12/26 12:54:10;;;;;;;21.92;4.63;;;;;;;;;;8217203;28;20412;-71
2020/12/26 12:58:13;;;;;;;13.88;3.63;;;5.20;99.90;;;;;;8258056;28;20058;-70
2020/12/26 13:02:14;;;;;;;21.37;4.03;;;5.50;99.90;;;;;;8227546;28;20132;-71
2020/12/26 13:06:17;;;;;;;14.18;3.90;;;5.50;99.90;;;;;;8215655;28;20499;-71
2020/12/26 13:10:19;;;;;;;15.32;3.88;;;5.60;99.90;;;;;;8231524;28;20566;-70
2020/12/26 13:14:20;;;;;;;21.17;4.53;;;5.60;99.90;;;;;;8229379;28;20053;-70
2020/12/26 13:18:22;;;;;;;12.95;3.85;;;5.50;99.90;;;;;;8237692;28;20613;-72
2020/12/26 13:22:23;;;;;;;16.73;3.57;;;5.50;99.90;;;;;;8205982;28;20573;-71
2020/12/26 13:26:25;;;;;;;8.33;3.17;;;5.40;99.90;;;;;;8220933;28;20096;-70
2020/12/26 13:30:27;;;;;;;18.30;4.20;;;5.70;99.90;;;;;;8245627;28;20079;-71
2020/12/26 13:34:29;;;;;;;17.08;4.03;;;5.60;99.90;;;;;;8222894;28;21675;-70
2020/12/26 13:38:30;;;;;;;8.93;3.43;;;5.60;99.90;;;;;;8238481;28;20061;-71
2020/12/26 13:42:33;;;;;;;11.37;3.30;;;5.20;99.90;;;;;;8217948;28;20054;-71
2020/12/26 13:46:36;;;;;;;14.00;3.67;;;5.20;99.90;;;;;;8216952;28;20468;-71
2020/12/26 13:50:37;;;;;;;11.45;3.45;;;6.00;99.90;;;;;;8259439;28;20507;-71
2020/12/26 13:54:38;;;;;;;12.00;4.67;;;5.80;99.90;;;;;;8254040;28;20077;-71
2020/12/26 13:58:40;;;;;;;17.40;4.63;;;5.50;99.90;;;;;;8234789;28;20096;-71
2020/12/26 14:02:41;;;;;;;13.07;3.73;;;5.30;99.90;;;;;;8221256;28;20050;-71
2020/12/26 14:06:43;;;;;;;12.07;2.93;;;5.30;99.90;;;;;;8230018;28;20054;-71
2020/12/26 14:10:44;;;;;;;17.57;4.53;;;5.20;99.90;;;;;;8228688;28;20074;-71
2020/12/26 14:14:46;;;;;;;12.07;4.20;;;5.70;99.90;;;;;;8235479;28;20133;-71
2020/12/26 14:18:48;;;;;;;12.00;3.80;;;5.20;99.90;;;;;;8233958;28;20049;-71
2020/12/26 14:22:49;;;;;;;14.90;4.53;;;5.70;99.90;;;;;;8220495;28;20471;-71
2020/12/26 14:26:51;;;;;;;16.00;3.87;;;5.50;99.90;;;;;;8243298;28;20101;-70
2020/12/26 14:30:52;;;;;;;8.05;3.33;;;5.50;99.90;;;;;;8221375;28;20495;-71
2020/12/26 14:34:53;;;;;;;11.90;2.93;;;5.30;99.90;;;;;;8235686;28;20038;-70
2020/12/26 14:38:55;;;;;;;19.37;3.50;;;;;;;;;;8235647;28;20058;-71
2020/12/26 14:42:57;;;;;;;14.15;3.22;;;5.20;99.90;;;;;;8237408;28;20426;-71
2020/12/26 14:46:59;;;;;;;11.73;3.22;;;5.50;99.90;;;;;;8250897;28;20054;-70
2020/12/26 14:51:01;;;;;;;13.75;3.30;;;5.50;99.90;;;;;;8237244;28;20214;-71
2020/12/26 14:55:02;;;;;;;13.88;3.33;;;5.50;99.90;;;;;;8236351;28;20058;-71
2020/12/26 14:59:04;;;;;;;11.93;3.97;;;5.70;99.90;;;;;;8233086;28;20118;-71
2020/12/26 15:03:05;;;;;;;15.30;3.77;;;5.50;99.90;;;;;;8228817;28;20141;-71
2020/12/26 15:07:07;;;;;;;8.50;3.40;;;5.60;99.90;;;;;;8220056;28;20449;-71
2020/12/26 15:11:08;;;;;;;17.70;3.70;;;5.70;99.90;;;;;;8237087;28;20076;-71
2020/12/26 15:15:11;;;;;;;15.80;4.33;;;5.90;99.90;;;;;;8237394;28;20427;-71
2020/12/26 15:19:12;;;;;;;13.00;3.47;;;5.30;99.90;;;;;;8227113;28;20054;-71
2020/12/26 15:23:14;;;;;;;11.70;4.00;;;5.70;99.90;;;;;;8235569;28;20104;-71
2020/12/26 15:27:15;;;;;;;11.33;3.90;;;5.60;99.90;;;;;;8237223;28;20619;-71
2020/12/26 15:31:17;;;;;;;19.17;4.50;;;5.70;99.90;;;;;;8219671;28;20121;-71
2020/12/26 15:35:18;;;;;;;11.75;3.97;;;5.60;99.90;;;;;;8234775;28;20066;-71
2020/12/26 15:39:19;;;;;;;12.43;3.87;;;5.90;99.90;;;;;;8231518;28;20496;-70
2020/12/26 15:43:21;;;;;;;15.57;4.07;;;;;;;;;;8231420;28;20130;-71
2020/12/26 15:47:23;;;;;;;16.38;4.50;;;5.80;99.90;;;;;;8221291;28;20469;-71
2020/12/26 15:51:24;;;;;;;17.35;4.35;;;5.40;99.90;;;;;;8235900;28;20058;-71
2020/12/26 15:55:26;;;;;;;13.67;5.10;;;6.00;99.90;;;;;;8224437;28;20432;-71
2020/12/26 15:59:27;;;;;;;20.40;5.60;;;5.60;99.90;;;;;;8237760;28;20051;-71
2020/12/26 16:03:29;;;;;;;11.70;5.13;;;5.40;99.90;;;;;;8220549;28;20054;-71
2020/12/26 16:07:30;;;;;;;21.17;6.07;;;5.80;99.90;;;;;;8234100;28;20070;-71
2020/12/26 16:11:32;;;;;;;14.82;6.63;;;5.40;99.90;;;;;;8221547;28;20055;-71
2020/12/26 16:15:34;;;;;;;13.57;6.63;;;5.50;99.90;;;;;;8246603;28;20255;-71
2020/12/26 16:19:35;;;;;;;16.93;6.90;;;5.80;99.90;;;;;;8220175;28;20688;-71
2020/12/26 16:23:40;;;;;;;17.37;8.10;;;5.60;99.90;;;;;;8207494;28;20113;-71
2020/12/26 16:27:42;;;;;;;14.93;7.43;;;5.50;99.90;;;;;;8210681;28;20057;-71
2020/12/26 16:31:43;;;;;;;16.00;7.83;;;5.60;99.90;;;;;;8245961;28;20054;-71
2020/12/26 16:35:45;;;;;;;18.97;8.53;;;5.50;99.90;;;;;;8246871;28;20392;-71
2020/12/26 16:39:50;;;;;;;16.92;7.82;;;5.50;99.90;;;;;;8222103;28;20050;-70
2020/12/26 16:43:51;;;;;;;15.27;8.10;;;5.40;99.90;;;;;;8221620;28;20084;-72
2020/12/26 16:47:52;;;;;;;17.67;8.77;;;5.40;99.90;;;;;;8237888;28;20847;-71
2020/12/26 16:51:54;;;;;;;17.37;9.90;;;5.30;99.90;;;;;;8207962;28;20050;-71
2020/12/26 16:55:56;;;;;;;19.10;9.35;;;5.60;99.90;;;;;;8247693;28;20156;-73
2020/12/26 17:00:10;;;;;;;12.50;7.20;;;5.40;99.90;;;;;;8247033;28;20524;-73
2020/12/26 17:04:11;;;;;;;14.57;9.00;;;5.60;99.90;;;;;;8211718;28;20068;-73
2020/12/26 17:08:12;;;;;;;18.67;9.77;;;5.70;99.90;;;;;;8218310;28;20054;-73
2020/12/26 17:12:14;;;;;;;13.60;8.67;;;5.60;99.90;;;;;;8215845;28;20050;-73
2020/12/26 17:16:17;;;;;;;14.60;9.77;;;5.90;99.90;;;;;;8232521;28;20058;-73
2020/12/26 17:20:18;;;;;;;14.88;10.63;;;5.60;99.90;;;;;;8230672;28;20852;-73
2020/12/26 17:24:20;;;;;;;10.47;5.13;;;5.20;99.90;;;;;;8239235;28;20101;-73
2020/12/26 17:28:21;;;;;;;19.10;10.43;;;5.70;99.90;;;;;;8225697;28;20046;-73
2020/12/26 17:32:23;;;;;;;14.97;10.03;;;6.00;99.90;;;;;;8211881;28;20054;-73
2020/12/26 17:36:25;;;;;;;13.18;9.10;;;6.40;99.90;;;;;;8215717;28;20120;-73
2020/12/26 17:40:27;;;;;;;15.95;8.88;;;5.20;99.90;;;;;;8209846;28;20125;-73
2020/12/26 17:44:28;;;;;;;16.57;9.30;;;5.80;99.90;;;;;;8221527;28;20057;-73
2020/12/26 17:48:30;;;;;;;16.67;9.20;;;6.50;99.90;;;;;;8225942;28;20046;-73
2020/12/26 17:52:35;;;;;;;16.25;9.85;;;5.70;99.90;;;;;;8205369;28;20053;-74
2020/12/26 17:56:36;;;;;;;11.93;9.05;;;5.50;99.90;;;;;;8215370;28;20063;-73
2020/12/26 18:00:38;;;;;;;16.27;9.05;;;5.40;99.90;;;;;;8241978;28;20042;-74
2020/12/26 18:04:40;;;;;;;17.65;10.13;;;5.60;99.90;;;;;;8213634;28;20066;-74
2020/12/26 18:08:41;;;;;;;13.97;8.87;;;5.50;99.90;;;;;;8200990;28;20511;-74
2020/12/26 18:12:43;;;;;;;15.00;8.98;;;5.60;99.90;;;;;;8216495;28;20522;-74
2020/12/26 18:16:46;;;;;;;17.00;9.40;;;5.90;99.90;;;;;;8230032;28;20057;-74
2020/12/26 18:20:49;;;;;;;13.38;7.03;;;5.60;99.90;;;;;;8228394;28;20105;-73
2020/12/26 18:25:02;;;;;;;12.52;8.95;;;6.10;99.90;;;;;;8217080;28;20499;-73
2020/12/26 18:29:04;;;;;;;9.30;6.22;;;5.50;99.90;;;;;;8237407;28;20054;-73
2020/12/26 18:33:06;;;;;;;15.87;10.00;;;5.50;99.90;;;;;;8234516;28;20141;-73
2020/12/26 18:37:07;;;;;;;14.07;9.18;;;5.40;99.90;;;;;;8225312;28;20109;-73
2020/12/26 18:41:08;;;;;;;17.60;9.67;;;6.30;99.90;;;;;;8222345;28;20525;-73
2020/12/26 18:45:10;;;;;;;12.60;7.93;;;5.70;99.90;;;;;;8238469;28;20121;-72
2020/12/26 18:49:12;;;;;;;14.10;9.45;;;5.30;99.90;;;;;;8233867;28;20054;-73
2020/12/26 18:53:13;;;;;;;16.67;9.00;;;5.10;99.90;;;;;;8237952;28;20109;-73
2020/12/26 18:57:15;;;;;;;13.03;8.40;;;5.30;99.90;;;;;;8261167;28;20054;-73
2020/12/26 19:01:20;;;;;;;12.53;9.17;;;6.00;99.90;;;;;;8235394;28;20057;-73
2020/12/26 19:05:22;;;;;;;12.00;8.40;;;5.00;99.90;;;;;;8236266;28;20574;-73
2020/12/26 19:09:23;;;;;;;11.93;8.13;;;5.20;99.90;;;;;;8222317;28;20054;-73
2020/12/26 19:13:24;;;;;;;13.20;10.60;;;5.30;99.90;;;;;;8243682;28;20105;-73
2020/12/26 19:17:29;;;;;;;11.97;8.67;;;5.60;99.90;;;;;;8239864;28;20058;-73
2020/12/26 19:21:30;;;;;;;16.42;9.68;;;5.10;99.90;;;;;;8218629;28;20523;-73
2020/12/26 19:25:32;;;;;;;13.07;8.90;;;5.30;99.90;;;;;;8216147;28;20054;-73
2020/12/26 19:29:33;;;;;;;12.47;8.67;;;5.80;99.90;;;;;;8219644;28;20064;-73
2020/12/26 19:33:36;;;;;;;10.52;8.93;;;5.20;99.90;;;;;;8227237;28;20390;-73
2020/12/26 19:37:38;;;;;;;10.77;8.13;;;5.00;99.90;;;;;;8215664;28;20142;-72
2020/12/26 19:41:40;;;;;;;;;;;5.60;99.90;;;;;;8214142;28;20046;-72
2020/12/26 19:45:41;;;;;;;12.85;9.63;;;5.10;99.90;;;;;;8237376;28;20203;-74
2020/12/26 19:49:43;;;;;;;16.58;9.10;;;6.00;99.90;;;;;;8238419;28;20043;-73
2020/12/26 19:53:44;;;;;;;13.18;9.23;;;5.20;99.90;;;;;;8217403;28;20042;-73
2020/12/26 19:57:46;;;;;;;13.23;9.80;;;5.70;99.90;;;;;;8214408;28;20050;-73
2020/12/26 20:01:47;;;;;;;13.53;9.60;;;4.80;99.90;;;;;;8233346;28;20062;-73
2020/12/26 20:05:49;;;;;;;13.37;9.33;;;5.50;99.90;;;;;;8232524;28;20480;-73
2020/12/26 20:09:50;;;;;;;13.55;9.70;;;5.30;99.90;;;;;;8231345;28;20471;-73
2020/12/26 20:13:52;;;;;;;12.53;8.83;;;5.40;99.90;;;;;;8220125;28;20113;-73
2020/12/26 20:17:54;;;;;;;12.73;9.73;;;5.50;99.90;;;;;;8235085;28;20476;-73
2020/12/26 20:21:56;;;;;;;12.05;9.80;;;5.10;99.90;;;;;;8205136;28;20050;-73
2020/12/26 20:25:57;;;;;;;14.73;9.27;;;5.60;99.90;;;;;;8231156;28;20085;-73
2020/12/26 20:30:00;;;;;;;14.00;9.80;;;5.30;99.90;;;;;;8221412;28;20675;-74
2020/12/26 20:34:03;;;;;;;13.88;10.50;;;5.40;99.90;;;;;;8230091;28;20144;-73
2020/12/26 20:38:05;;;;;;;14.15;9.60;;;5.10;99.90;;;;;;8237069;28;20452;-73
2020/12/26 20:42:06;;;;;;;13.47;9.63;;;5.90;99.90;;;;;;8238990;28;20097;-73
2020/12/26 20:46:13;;;;;;;13.43;9.77;;;5.10;99.90;;;;;;8231738;28;20062;-73
2020/12/26 20:50:15;;;;;;;14.45;10.82;;;5.00;99.90;;;;;;8219996;28;20048;-71
2020/12/26 20:54:16;;;;;;;16.30;11.47;;;5.30;99.90;;;;;;8237786;28;20121;-72
2020/12/26 20:58:17;;;;;;;13.57;9.20;;;4.90;99.90;;;;;;8232771;28;20161;-73
2020/12/26 21:02:19;;;;;;;16.43;10.53;;;5.30;99.90;;;;;;8229807;28;20073;-76
2020/12/26 21:06:23;;;;;;;14.98;10.65;;;5.20;99.90;;;;;;8227174;28;20069;-74
2020/12/26 21:10:26;;;;;;;15.82;10.27;;;5.30;99.90;;;;;;8233787;28;20400;-74
2020/12/26 21:14:28;;;;;;;17.95;11.35;;;5.60;99.90;;;;;;8234182;28;20057;-74
2020/12/26 21:18:29;;;;;;;17.03;11.90;;;5.60;99.90;;;;;;8247468;28;20058;-75
2020/12/26 21:22:34;;;;;;;15.53;12.07;;;5.40;99.90;;;;;;8201848;28;20060;-75
2020/12/26 21:26:36;;;;;;;20.10;13.60;;;5.20;99.90;;;;;;8248323;28;21047;-76
2020/12/26 21:30:37;;;;;;;16.00;12.07;;;5.70;99.90;;;;;;8233010;28;20058;-74
2020/12/26 21:34:39;;;;;;;17.07;12.37;;;5.40;99.90;;;;;;8200789;28;20465;-74
2020/12/26 21:38:41;;;;;;;17.88;12.80;;;6.40;99.90;;;;;;8211591;28;20050;-72